createdAt,value
2023-06-21T00:01:40.043Z,24.30
2023-06-21T00:04:07.209Z,24.30
2023-06-21T00:06:35.674Z,24.30
2023-06-21T00:09:06.695Z,24.30
2023-06-21T00:11:33.966Z,24.30
2023-06-21T00:14:00.782Z,24.30
2023-06-21T00:16:27.516Z,24.30
2023-06-21T00:18:54.486Z,24.30
2023-06-21T00:21:21.664Z,24.30
2023-06-21T00:23:48.393Z,24.30
2023-06-21T00:26:15.126Z,24.30
2023-06-21T00:28:41.847Z,24.30
2023-06-21T00:31:11.395Z,24.30
2023-06-21T00:33:39.135Z,24.30
2023-06-21T00:36:05.934Z,24.30
2023-06-21T00:38:35.732Z,24.30
2023-06-21T00:41:08.798Z,24.30
2023-06-21T00:43:35.572Z,24.30
2023-06-21T00:46:03.539Z,24.30
2023-06-21T00:48:30.572Z,24.30
2023-06-21T00:50:58.060Z,24.30
2023-06-21T00:53:27.466Z,24.30
2023-06-21T00:55:55.924Z,24.20
2023-06-21T00:58:22.832Z,24.30
2023-06-21T01:00:51.080Z,24.30
2023-06-21T01:03:22.753Z,24.30
2023-06-21T01:06:04.619Z,24.20
2023-06-21T01:08:56.799Z,24.30
2023-06-21T01:11:43.772Z,24.30
2023-06-21T01:14:44.026Z,24.20
2023-06-21T01:17:12.344Z,24.30
2023-06-21T01:19:48.901Z,24.20
2023-06-21T01:22:41.787Z,24.20
2023-06-21T01:25:15.887Z,24.30
2023-06-21T01:27:54.769Z,24.20
2023-06-21T01:30:22.964Z,24.20
2023-06-21T01:32:54.495Z,24.20
2023-06-21T01:35:22.522Z,24.20
2023-06-21T01:37:53.462Z,24.20
2023-06-21T01:40:21.072Z,24.20
2023-06-21T01:42:47.801Z,24.20
2023-06-21T01:45:14.628Z,24.20
2023-06-21T01:47:43.505Z,24.20
2023-06-21T01:50:11.754Z,24.20
2023-06-21T01:52:39.307Z,24.20
2023-06-21T01:55:07.412Z,24.20
2023-06-21T01:57:37.784Z,24.20
2023-06-21T02:00:17.746Z,24.20
2023-06-21T02:02:51.876Z,24.20
2023-06-21T02:05:19.464Z,24.20
2023-06-21T02:07:47.391Z,24.20
2023-06-21T02:10:16.690Z,24.20
2023-06-21T02:12:48.473Z,24.20
2023-06-21T02:15:15.936Z,24.20
2023-06-21T02:17:49.356Z,24.20
2023-06-21T02:20:17.729Z,24.20
2023-06-21T02:22:44.959Z,24.20
2023-06-21T02:25:12.984Z,24.20
2023-06-21T02:27:40.202Z,24.20
2023-06-21T02:30:09.105Z,24.20
2023-06-21T02:32:36.098Z,24.20
2023-06-21T02:35:02.992Z,24.20
2023-06-21T02:37:29.882Z,24.20
2023-06-21T02:39:57.339Z,24.20
2023-06-21T02:42:24.618Z,24.20
2023-06-21T02:44:51.351Z,24.20
2023-06-21T02:47:19.426Z,24.20
2023-06-21T02:49:46.200Z,24.30
2023-06-21T02:52:13.012Z,24.20
2023-06-21T02:54:39.739Z,24.20
2023-06-21T02:57:06.811Z,24.20
2023-06-21T02:59:33.509Z,24.20
2023-06-21T03:02:01.176Z,24.20
2023-06-21T03:04:27.846Z,24.20
2023-06-21T03:06:54.523Z,24.20
2023-06-21T03:09:21.366Z,24.20
2023-06-21T03:11:48.651Z,24.20
2023-06-21T03:14:15.671Z,24.20
2023-06-21T03:16:42.431Z,24.20
2023-06-21T03:19:09.417Z,24.20
2023-06-21T03:21:36.178Z,24.20
2023-06-21T03:24:04.628Z,24.20
2023-06-21T03:26:33.628Z,24.20
2023-06-21T03:29:01.256Z,24.20
2023-06-21T03:31:28.406Z,24.20
2023-06-21T03:33:55.681Z,24.20
2023-06-21T03:36:22.350Z,24.20
2023-06-21T03:38:49.074Z,24.20
2023-06-21T03:41:15.747Z,24.20
2023-06-21T03:43:42.387Z,24.20
2023-06-21T03:46:09.087Z,24.20
2023-06-21T03:48:35.776Z,24.20
2023-06-21T03:51:02.785Z,24.20
2023-06-21T03:53:29.506Z,24.20
2023-06-21T03:55:56.232Z,24.20
2023-06-21T03:58:22.945Z,24.20
2023-06-21T04:00:49.683Z,24.20
2023-06-21T04:03:16.579Z,24.20
2023-06-21T04:05:43.311Z,24.20
2023-06-21T04:08:10.034Z,24.20
2023-06-21T04:10:36.769Z,24.20
2023-06-21T04:13:03.725Z,24.20
2023-06-21T04:15:31.293Z,24.20
2023-06-21T04:17:58.142Z,24.20
2023-06-21T04:20:24.965Z,24.20
2023-06-21T04:22:51.702Z,24.20
2023-06-21T04:25:19.523Z,24.20
2023-06-21T04:27:47.063Z,24.20
2023-06-21T04:30:14.880Z,24.20
2023-06-21T04:32:48.513Z,24.30
2023-06-21T04:35:17.535Z,24.30
2023-06-21T04:37:48.553Z,24.30
2023-06-21T04:40:18.032Z,24.30
2023-06-21T04:42:55.398Z,24.30
2023-06-21T04:45:23.037Z,24.30
2023-06-21T04:47:49.940Z,24.30
2023-06-21T04:52:49.744Z,24.30
2023-06-21T04:55:19.173Z,24.30
2023-06-21T04:57:47.945Z,24.30
2023-06-21T05:00:15.353Z,24.30
2023-06-21T05:02:42.349Z,24.30
2023-06-21T05:05:09.674Z,24.30
2023-06-21T05:07:38.982Z,24.30
2023-06-21T05:10:08.588Z,24.30
2023-06-21T05:12:36.449Z,24.30
2023-06-21T05:15:03.476Z,24.30
2023-06-21T05:17:30.192Z,24.30
2023-06-21T05:19:56.914Z,24.30
2023-06-21T05:22:23.620Z,24.20
2023-06-21T05:24:50.314Z,24.30
2023-06-21T05:27:17.068Z,24.30
2023-06-21T05:29:43.730Z,24.30
2023-06-21T05:32:10.774Z,24.30
2023-06-21T05:34:37.552Z,24.20
2023-06-21T05:37:04.473Z,24.30
2023-06-21T05:39:31.142Z,24.30
2023-06-21T05:41:57.792Z,24.20
2023-06-21T05:44:24.452Z,24.30
2023-06-21T05:46:51.083Z,24.30
2023-06-21T05:49:19.264Z,24.20
2023-06-21T05:51:46.009Z,24.30
2023-06-21T05:54:15.094Z,24.30
2023-06-21T05:56:42.347Z,24.30
2023-06-21T05:59:09.295Z,24.20
2023-06-21T06:01:37.167Z,24.20
2023-06-21T06:04:04.229Z,24.20
2023-06-21T06:06:40.165Z,24.20
2023-06-21T06:09:11.030Z,24.20
2023-06-21T06:11:38.023Z,24.20
2023-06-21T06:14:05.029Z,24.30
2023-06-21T06:16:31.796Z,24.20
2023-06-21T06:18:58.504Z,24.10
2023-06-21T06:21:25.163Z,24.10
2023-06-21T06:23:53.481Z,24.10
2023-06-21T06:26:27.865Z,24.10
2023-06-21T06:28:55.581Z,24.00
2023-06-21T06:31:24.345Z,23.90
2023-06-21T06:33:51.735Z,24.00
2023-06-21T06:36:18.456Z,24.00
2023-06-21T06:38:51.842Z,24.10
2023-06-21T06:41:19.275Z,24.10
2023-06-21T06:43:46.495Z,24.10
2023-06-21T06:46:13.280Z,24.10
2023-06-21T06:48:40.011Z,24.10
2023-06-21T06:51:06.771Z,24.10
2023-06-21T06:53:33.592Z,24.20
2023-06-21T06:56:00.896Z,24.20
2023-06-21T06:58:28.983Z,24.20
2023-06-21T07:00:56.102Z,24.20
2023-06-21T07:03:23.004Z,24.30
2023-06-21T07:05:50.072Z,24.30
2023-06-21T07:08:17.424Z,24.30
2023-06-21T07:10:44.527Z,24.30
2023-06-21T07:13:11.436Z,24.30
2023-06-21T07:15:38.295Z,24.30
2023-06-21T07:18:05.172Z,24.30
2023-06-21T07:20:32.792Z,24.30
2023-06-21T07:23:00.131Z,24.30
2023-06-21T07:25:27.183Z,24.30
2023-06-21T07:27:54.014Z,24.30
2023-06-21T07:30:21.499Z,24.40
2023-06-21T07:32:48.713Z,24.40
2023-06-21T07:35:17.318Z,24.40
2023-06-21T07:37:45.139Z,24.40
2023-06-21T07:40:12.679Z,24.40
2023-06-21T07:42:41.184Z,24.40
2023-06-21T07:45:09.259Z,24.40
2023-06-21T07:47:36.268Z,24.40
2023-06-21T07:50:20.398Z,24.40
2023-06-21T07:52:48.942Z,24.40
2023-06-21T07:55:15.723Z,24.40
2023-06-21T07:57:42.934Z,24.40
2023-06-21T08:00:12.420Z,24.40
2023-06-21T08:02:41.848Z,24.40
2023-06-21T08:05:08.809Z,24.40
2023-06-21T08:07:35.563Z,24.40
2023-06-21T08:10:02.351Z,24.40
2023-06-21T08:12:29.100Z,24.50
2023-06-21T08:14:55.772Z,24.50
2023-06-21T08:17:22.533Z,24.50
2023-06-21T08:19:49.326Z,24.50
2023-06-21T08:22:16.036Z,24.50
2023-06-21T08:24:42.705Z,24.50
2023-06-21T08:27:09.528Z,24.50
2023-06-21T08:29:36.408Z,24.50
2023-06-21T08:32:05.852Z,24.50
2023-06-21T08:34:33.005Z,24.60
2023-06-21T08:36:59.910Z,24.60
2023-06-21T08:39:27.652Z,24.60
2023-06-21T08:41:55.944Z,24.60
2023-06-21T08:44:22.786Z,24.60
2023-06-21T08:46:50.688Z,24.60
2023-06-21T08:49:19.816Z,24.50
2023-06-21T08:51:47.896Z,24.60
2023-06-21T08:54:16.018Z,24.60
2023-06-21T08:57:06.045Z,24.50
2023-06-21T08:59:42.463Z,24.60
2023-06-21T09:02:28.498Z,24.60
2023-06-21T09:04:59.624Z,24.60
2023-06-21T09:07:27.865Z,24.50
2023-06-21T09:09:57.568Z,24.60
2023-06-21T09:12:26.031Z,24.60
2023-06-21T09:14:53.728Z,24.60
2023-06-21T09:17:21.441Z,24.60
2023-06-21T09:19:48.198Z,24.60
2023-06-21T09:22:15.216Z,24.60
2023-06-21T09:24:42.284Z,24.70
2023-06-21T09:27:09.131Z,24.70
2023-06-21T09:29:36.522Z,24.70
2023-06-21T09:32:03.926Z,24.60
2023-06-21T09:34:30.573Z,24.60
2023-06-21T09:36:57.266Z,24.60
2023-06-21T09:39:26.110Z,24.70
2023-06-21T09:41:53.382Z,24.60
2023-06-21T09:44:23.189Z,24.60
2023-06-21T09:46:50.301Z,24.60
2023-06-21T09:49:17.422Z,24.60
2023-06-21T09:51:48.702Z,24.60
2023-06-21T09:54:15.382Z,24.60
2023-06-21T09:56:42.060Z,24.60
2023-06-21T09:59:20.729Z,24.60
2023-06-21T10:01:50.762Z,24.70
2023-06-21T10:04:18.542Z,24.70
2023-06-21T10:06:52.773Z,24.70
2023-06-21T10:09:20.314Z,24.70
2023-06-21T10:11:49.677Z,24.70
2023-06-21T10:14:24.526Z,24.70
2023-06-21T10:16:53.662Z,24.70
2023-06-21T10:19:25.778Z,24.70
2023-06-21T10:22:14.458Z,24.70
2023-06-21T10:24:52.161Z,24.70
2023-06-21T10:27:20.947Z,24.70
2023-06-21T10:29:59.196Z,24.70
2023-06-21T10:32:26.737Z,24.70
2023-06-21T10:35:16.787Z,24.70
2023-06-21T10:37:49.548Z,24.70
2023-06-21T10:40:17.504Z,24.80
2023-06-21T10:42:45.517Z,24.80
2023-06-21T10:45:13.876Z,24.80
2023-06-21T10:47:41.817Z,24.80
2023-06-21T10:50:09.808Z,24.80
2023-06-21T10:52:37.029Z,24.80
2023-06-21T10:55:04.739Z,24.80
2023-06-21T10:57:34.690Z,24.70
2023-06-21T11:00:09.038Z,24.70
2023-06-21T11:02:36.448Z,24.70
2023-06-21T11:05:23.213Z,24.70
2023-06-21T11:07:56.170Z,24.70
2023-06-21T11:10:54.231Z,24.70
2023-06-21T11:13:40.512Z,24.70
2023-06-21T11:16:16.773Z,24.70
2023-06-21T11:18:51.106Z,24.70
2023-06-21T11:21:45.925Z,24.70
2023-06-21T11:24:16.855Z,24.70
2023-06-21T11:27:05.874Z,24.70
2023-06-21T11:29:38.474Z,24.70
2023-06-21T11:32:13.741Z,24.60
2023-06-21T11:34:57.547Z,24.60
2023-06-21T11:37:37.464Z,24.60
2023-06-21T11:40:06.745Z,24.70
2023-06-21T11:42:45.362Z,24.60
2023-06-21T11:45:26.180Z,24.60
2023-06-21T11:48:05.045Z,24.60
2023-06-21T11:50:53.165Z,24.70
2023-06-21T11:53:25.380Z,24.70
2023-06-21T11:55:55.378Z,24.70
2023-06-21T11:58:22.914Z,24.70
2023-06-21T12:00:49.920Z,24.70
2023-06-21T12:03:18.233Z,24.80
2023-06-21T12:05:52.829Z,24.80
2023-06-21T12:08:21.730Z,24.80
2023-06-21T12:10:48.970Z,24.90
2023-06-21T12:13:18.282Z,25.00
2023-06-21T12:15:58.893Z,25.00
2023-06-21T12:18:27.613Z,25.00
2023-06-21T12:21:02.492Z,25.10
2023-06-21T12:23:29.837Z,25.00
2023-06-21T12:26:00.919Z,25.10
2023-06-21T12:28:27.900Z,25.10
2023-06-21T12:30:58.702Z,25.10
2023-06-21T12:33:27.679Z,25.10
2023-06-21T12:36:17.736Z,25.10
2023-06-21T12:38:55.408Z,25.10
2023-06-21T12:41:24.141Z,24.90
2023-06-21T12:43:53.493Z,24.80
2023-06-21T12:46:21.680Z,24.70
2023-06-21T12:48:49.450Z,24.70
2023-06-21T12:51:29.920Z,24.80
2023-06-21T12:54:08.055Z,24.70
2023-06-21T12:56:35.896Z,24.60
2023-06-21T12:59:03.653Z,24.60
2023-06-21T13:01:32.044Z,24.60
2023-06-21T13:04:00.584Z,24.60
2023-06-21T13:06:28.342Z,24.60
2023-06-21T13:08:56.406Z,24.60
2023-06-21T13:11:24.433Z,24.60
2023-06-21T13:13:51.512Z,24.60
2023-06-21T13:16:18.716Z,24.60
2023-06-21T13:18:47.392Z,24.70
2023-06-21T13:21:15.276Z,24.60
2023-06-21T13:23:42.025Z,24.60
2023-06-21T13:26:08.700Z,24.60
2023-06-21T13:28:35.382Z,24.60
2023-06-21T13:31:02.711Z,24.80
2023-06-21T13:33:29.528Z,24.70
2023-06-21T13:35:56.536Z,24.80
2023-06-21T13:38:24.530Z,24.70
2023-06-21T13:40:51.846Z,24.70
2023-06-21T13:43:19.191Z,24.70
2023-06-21T13:45:45.988Z,24.80
2023-06-21T13:48:12.935Z,24.80
2023-06-21T13:50:40.744Z,24.80
2023-06-21T13:53:07.443Z,24.80
2023-06-21T13:55:34.149Z,24.90
2023-06-21T13:58:00.827Z,25.00
2023-06-21T14:00:28.741Z,25.10
2023-06-21T14:02:55.773Z,25.00
2023-06-21T14:05:24.018Z,25.10
2023-06-21T14:07:51.670Z,25.10
2023-06-21T14:10:18.730Z,25.10
2023-06-21T14:12:45.854Z,25.10
2023-06-21T14:15:12.957Z,25.20
2023-06-21T14:17:40.351Z,25.10
2023-06-21T14:20:08.610Z,25.00
2023-06-21T14:22:35.596Z,25.00
2023-06-21T14:25:04.619Z,25.00
2023-06-21T14:27:32.144Z,25.00
2023-06-21T14:30:02.555Z,25.00
2023-06-21T14:32:32.973Z,24.90
2023-06-21T14:35:00.843Z,24.90
2023-06-21T14:37:28.266Z,24.90
2023-06-21T14:39:58.138Z,25.00
2023-06-21T14:42:26.830Z,25.00
2023-06-21T14:44:53.678Z,25.00
2023-06-21T14:47:20.563Z,25.10
2023-06-21T14:49:53.024Z,25.00
2023-06-21T14:52:20.463Z,25.00
2023-06-21T14:54:48.325Z,25.00
2023-06-21T14:57:15.177Z,25.00
2023-06-21T14:59:42.617Z,25.00
2023-06-21T15:02:11.220Z,25.00
2023-06-21T15:04:38.957Z,25.00
2023-06-21T15:07:08.420Z,25.00
2023-06-21T15:09:35.325Z,25.00
2023-06-21T15:12:02.102Z,25.10
2023-06-21T15:14:28.766Z,25.00
2023-06-21T15:16:57.254Z,25.00
2023-06-21T15:19:25.463Z,25.10
2023-06-21T15:21:52.680Z,25.00
2023-06-21T15:24:19.381Z,25.00
2023-06-21T15:26:46.579Z,25.00
2023-06-21T15:29:13.289Z,25.00
2023-06-21T15:31:41.239Z,25.00
2023-06-21T15:34:13.812Z,25.10
2023-06-21T15:36:42.369Z,25.10
2023-06-21T15:39:10.190Z,25.10
2023-06-21T15:41:37.790Z,25.10
2023-06-21T15:44:05.895Z,25.10
2023-06-21T15:46:34.002Z,25.10
2023-06-21T15:49:00.817Z,25.10
2023-06-21T15:51:27.653Z,25.10
2023-06-21T15:53:56.269Z,25.10
2023-06-21T15:56:24.025Z,25.00
2023-06-21T15:58:51.711Z,25.00
2023-06-21T16:01:19.027Z,25.00
2023-06-21T16:03:51.073Z,25.10
2023-06-21T16:06:19.125Z,25.10
2023-06-21T16:08:47.140Z,25.10
2023-06-21T16:11:14.401Z,25.10
2023-06-21T16:16:12.788Z,25.10
2023-06-21T16:18:39.454Z,25.10
2023-06-21T16:21:06.125Z,25.00
2023-06-21T16:23:33.627Z,25.00
2023-06-21T16:26:00.312Z,25.00
2023-06-21T16:28:27.001Z,24.90
2023-06-21T16:30:53.708Z,25.00
2023-06-21T16:33:20.488Z,25.00
2023-06-21T16:35:47.746Z,25.00
2023-06-21T16:38:14.529Z,25.00
2023-06-21T16:40:41.215Z,25.00
2023-06-21T16:43:07.869Z,24.90
2023-06-21T16:45:34.594Z,24.90
2023-06-21T16:48:01.375Z,24.90
2023-06-21T16:50:28.765Z,24.90
2023-06-21T16:52:55.978Z,24.90
2023-06-21T16:55:22.654Z,24.90
2023-06-21T16:57:49.675Z,24.90
2023-06-21T17:00:16.842Z,24.80
2023-06-21T17:02:44.063Z,24.90
2023-06-21T17:05:10.863Z,24.80
2023-06-21T17:07:37.759Z,24.80
2023-06-21T17:10:04.891Z,24.90
2023-06-21T17:12:31.659Z,24.90
2023-06-21T17:15:00.183Z,24.80
2023-06-21T17:17:28.149Z,24.80
2023-06-21T17:19:55.077Z,24.80
2023-06-21T17:22:21.780Z,24.80
2023-06-21T17:24:51.976Z,24.80
2023-06-21T17:27:19.158Z,24.80
2023-06-21T17:29:47.642Z,24.80
2023-06-21T17:32:14.939Z,24.80
2023-06-21T17:34:43.545Z,24.80
2023-06-21T17:37:10.554Z,24.80
2023-06-21T17:39:37.344Z,24.80
2023-06-21T17:42:05.995Z,24.80
2023-06-21T17:44:32.781Z,24.80
2023-06-21T17:46:59.805Z,24.80
2023-06-21T17:49:26.594Z,24.80
2023-06-21T17:51:53.470Z,24.90
2023-06-21T17:54:20.949Z,24.90
2023-06-21T17:56:48.468Z,24.80
2023-06-21T17:59:15.623Z,24.80
2023-06-21T18:01:42.329Z,24.80
2023-06-21T18:04:09.057Z,24.80
2023-06-21T18:06:35.821Z,24.80
2023-06-21T18:09:02.503Z,24.80
2023-06-21T18:11:29.768Z,24.80
2023-06-21T18:13:56.509Z,24.80
2023-06-21T18:16:24.000Z,24.80
2023-06-21T18:18:50.668Z,24.80
2023-06-21T18:21:17.632Z,24.80
2023-06-21T18:23:44.350Z,24.70
2023-06-21T18:26:12.913Z,24.70
2023-06-21T18:28:39.783Z,24.70
2023-06-21T18:31:06.601Z,24.70
2023-06-21T18:33:33.440Z,24.80
2023-06-21T18:36:00.329Z,24.70
2023-06-21T18:38:28.847Z,24.70
2023-06-21T18:40:56.263Z,24.80
2023-06-21T18:43:24.238Z,24.70
2023-06-21T18:45:50.954Z,24.70
2023-06-21T18:48:17.849Z,24.70
2023-06-21T18:50:44.697Z,24.70
2023-06-21T18:53:11.402Z,24.80
2023-06-21T18:55:38.100Z,24.80
2023-06-21T18:58:04.752Z,24.80
2023-06-21T19:00:31.443Z,24.80
2023-06-21T19:02:58.329Z,24.70
2023-06-21T19:05:25.190Z,24.70
2023-06-21T19:07:52.199Z,24.70
2023-06-21T19:10:18.917Z,24.70
2023-06-21T19:12:45.774Z,24.70
2023-06-21T19:15:12.641Z,24.70
2023-06-21T19:17:39.454Z,24.80
2023-06-21T19:20:06.944Z,24.70
2023-06-21T19:22:33.722Z,24.70
2023-06-21T19:25:01.081Z,24.80
2023-06-21T19:27:27.869Z,24.80
2023-06-21T19:29:54.570Z,24.80
2023-06-21T19:32:21.338Z,24.80
2023-06-21T19:34:49.053Z,24.80
2023-06-21T19:37:18.877Z,24.80
2023-06-21T19:39:45.993Z,24.70
2023-06-21T19:42:13.857Z,24.70
2023-06-21T19:44:43.322Z,24.70
2023-06-21T19:47:12.932Z,24.70
2023-06-21T19:49:40.905Z,24.70
2023-06-21T19:52:08.258Z,24.70
2023-06-21T19:54:35.070Z,24.70
2023-06-21T19:57:01.800Z,24.70
2023-06-21T19:59:28.656Z,24.70
2023-06-21T20:01:55.358Z,24.70
2023-06-21T20:04:22.105Z,24.70
2023-06-21T20:06:48.967Z,24.70
2023-06-21T20:09:16.418Z,24.70
2023-06-21T20:11:43.119Z,24.70
2023-06-21T20:14:09.819Z,24.70
2023-06-21T20:16:36.528Z,24.70
2023-06-21T20:19:03.253Z,24.70
2023-06-21T20:21:30.042Z,24.70
2023-06-21T20:23:56.754Z,24.70
2023-06-21T20:26:23.480Z,24.60
2023-06-21T20:28:50.197Z,24.60
2023-06-21T20:31:17.058Z,24.60
2023-06-21T20:33:44.050Z,24.60
2023-06-21T20:36:10.789Z,24.70
2023-06-21T20:38:37.478Z,24.70
2023-06-21T20:41:07.225Z,24.70
2023-06-21T20:43:36.438Z,24.70
2023-06-21T20:46:04.645Z,24.70
2023-06-21T20:48:32.482Z,24.60
2023-06-21T20:50:59.202Z,24.60
2023-06-21T20:53:29.982Z,24.60
2023-06-21T20:56:04.114Z,24.60
2023-06-21T20:58:31.828Z,24.60
2023-06-21T21:00:58.541Z,24.60
2023-06-21T21:03:27.913Z,24.70
2023-06-21T21:05:54.733Z,24.70
2023-06-21T21:08:21.456Z,24.60
2023-06-21T21:10:48.163Z,24.60
2023-06-21T21:13:15.064Z,24.60
2023-06-21T21:15:41.806Z,24.60
2023-06-21T21:18:08.468Z,24.60
2023-06-21T21:20:38.122Z,24.60
2023-06-21T21:23:05.360Z,24.60
2023-06-21T21:25:32.019Z,24.60
2023-06-21T21:27:58.723Z,24.60
2023-06-21T21:30:25.637Z,24.60
2023-06-21T21:32:53.838Z,24.60
2023-06-21T21:35:20.735Z,24.60
2023-06-21T21:37:47.406Z,24.60
2023-06-21T21:40:14.829Z,24.60
2023-06-21T21:42:41.526Z,24.60
2023-06-21T21:45:08.888Z,24.60
2023-06-21T21:47:35.569Z,24.60
2023-06-21T21:50:02.574Z,24.60
2023-06-21T21:52:29.268Z,24.60
2023-06-21T21:54:56.011Z,24.60
2023-06-21T21:57:22.741Z,24.60
2023-06-21T21:59:49.442Z,24.60
2023-06-21T22:02:17.163Z,24.60
2023-06-21T22:04:45.842Z,24.60
2023-06-21T22:07:13.466Z,24.60
2023-06-21T22:09:40.196Z,24.60
2023-06-21T22:12:07.842Z,24.60
2023-06-21T22:14:36.062Z,24.60
2023-06-21T22:17:07.146Z,24.60
2023-06-21T22:19:33.828Z,24.60
2023-06-21T22:22:02.550Z,24.60
2023-06-21T22:24:30.307Z,24.60
2023-06-21T22:26:57.029Z,24.60
2023-06-21T22:29:24.680Z,24.60
2023-06-21T22:31:51.500Z,24.50
2023-06-21T22:34:20.095Z,24.60
2023-06-21T22:36:47.577Z,24.60
2023-06-21T22:39:14.706Z,24.60
2023-06-21T22:41:42.361Z,24.60
2023-06-21T22:44:09.311Z,24.60
2023-06-21T22:46:36.671Z,24.60
2023-06-21T22:49:04.896Z,24.60
2023-06-21T22:51:34.237Z,24.60
2023-06-21T22:54:01.135Z,24.60
2023-06-21T22:56:27.974Z,24.60
2023-06-21T22:58:54.696Z,24.60
2023-06-21T23:01:21.446Z,24.50
2023-06-21T23:03:49.232Z,24.60
2023-06-21T23:06:18.214Z,24.60
2023-06-21T23:08:46.162Z,24.60
2023-06-21T23:11:16.477Z,24.50
2023-06-21T23:13:43.575Z,24.60
2023-06-21T23:16:10.961Z,24.60
2023-06-21T23:18:43.424Z,24.60
2023-06-21T23:21:10.156Z,24.60
2023-06-21T23:23:41.934Z,24.60
2023-06-21T23:26:14.111Z,24.60
2023-06-21T23:28:41.277Z,24.60
2023-06-21T23:31:13.194Z,24.50
2023-06-21T23:33:45.893Z,24.50
2023-06-21T23:36:14.074Z,24.50
2023-06-21T23:38:54.826Z,24.50
2023-06-21T23:41:23.502Z,24.50
2023-06-21T23:43:59.273Z,24.50
2023-06-21T23:46:29.929Z,24.50
2023-06-21T23:48:58.557Z,24.50
2023-06-21T23:51:26.801Z,24.50
2023-06-21T23:53:53.672Z,24.50
2023-06-21T23:56:21.825Z,24.50
2023-06-21T23:58:48.504Z,24.60
